sensor_id;sensor_type;location;lat;lon;timestamp;temperature;humidity
4406;DHT22;2216;53.806;11.598;2022-07-22T00:02:06;19.10;51.00
4406;DHT22;2216;53.806;11.598;2022-07-22T00:04:32;19.20;51.30
4406;DHT22;2216;53.806;11.598;2022-07-22T00:06:58;19.20;51.30
4406;DHT22;2216;53.806;11.598;2022-07-22T00:09:24;19.20;51.20
4406;DHT22;2216;53.806;11.598;2022-07-22T00:11:50;19.20;51.20
4406;DHT22;2216;53.806;11.598;2022-07-22T00:14:15;19.20;51.30
4406;DHT22;2216;53.806;11.598;2022-07-22T00:16:41;19.20;51.40
4406;DHT22;2216;53.806;11.598;2022-07-22T00:19:08;19.20;51.40
4406;DHT22;2216;53.806;11.598;2022-07-22T00:21:33;19.20;51.30
4406;DHT22;2216;53.806;11.598;2022-07-22T00:23:59;19.20;51.40
4406;DHT22;2216;53.806;11.598;2022-07-22T00:26:25;19.20;51.30
4406;DHT22;2216;53.806;11.598;2022-07-22T00:28:51;19.20;51.30
4406;DHT22;2216;53.806;11.598;2022-07-22T00:31:17;19.20;51.60
4406;DHT22;2216;53.806;11.598;2022-07-22T00:33:42;19.20;51.30
4406;DHT22;2216;53.806;11.598;2022-07-22T00:36:08;19.20;51.30
4406;DHT22;2216;53.806;11.598;2022-07-22T00:38:34;19.30;51.40
4406;DHT22;2216;53.806;11.598;2022-07-22T00:40:59;19.30;51.40
4406;DHT22;2216;53.806;11.598;2022-07-22T00:43:25;19.30;51.90
4406;DHT22;2216;53.806;11.598;2022-07-22T00:45:51;19.30;51.30
4406;DHT22;2216;53.806;11.598;2022-07-22T00:48:17;19.20;51.40
4406;DHT22;2216;53.806;11.598;2022-07-22T00:50:42;19.30;51.40
4406;DHT22;2216;53.806;11.598;2022-07-22T00:53:08;19.30;51.30
4406;DHT22;2216;53.806;11.598;2022-07-22T00:55:34;19.30;51.40
4406;DHT22;2216;53.806;11.598;2022-07-22T00:58:01;19.30;51.50
4406;DHT22;2216;53.806;11.598;2022-07-22T01:00:28;19.30;51.60
4406;DHT22;2216;53.806;11.598;2022-07-22T01:02:54;19.30;51.50
4406;DHT22;2216;53.806;11.598;2022-07-22T01:05:19;19.30;51.40
4406;DHT22;2216;53.806;11.598;2022-07-22T01:07:45;19.30;51.50
4406;DHT22;2216;53.806;11.598;2022-07-22T01:10:12;19.30;51.50
4406;DHT22;2216;53.806;11.598;2022-07-22T01:12:38;19.30;51.70
4406;DHT22;2216;53.806;11.598;2022-07-22T01:15:04;19.30;51.60
4406;DHT22;2216;53.806;11.598;2022-07-22T01:17:31;19.30;51.70
4406;DHT22;2216;53.806;11.598;2022-07-22T01:20:05;19.30;51.60
4406;DHT22;2216;53.806;11.598;2022-07-22T01:22:32;19.30;51.60
4406;DHT22;2216;53.806;11.598;2022-07-22T01:24:57;19.30;51.60
4406;DHT22;2216;53.806;11.598;2022-07-22T01:27:23;19.30;51.50
4406;DHT22;2216;53.806;11.598;2022-07-22T01:29:49;19.30;51.70
4406;DHT22;2216;53.806;11.598;2022-07-22T01:32:14;19.30;51.60
4406;DHT22;2216;53.806;11.598;2022-07-22T01:34:41;19.30;51.60
4406;DHT22;2216;53.806;11.598;2022-07-22T01:37:09;19.30;51.60
4406;DHT22;2216;53.806;11.598;2022-07-22T01:39:35;19.30;51.60
4406;DHT22;2216;53.806;11.598;2022-07-22T01:42:01;19.30;51.60
4406;DHT22;2216;53.806;11.598;2022-07-22T01:44:26;19.30;51.60
4406;DHT22;2216;53.806;11.598;2022-07-22T01:46:52;19.20;51.60
4406;DHT22;2216;53.806;11.598;2022-07-22T01:49:19;19.20;51.80
4406;DHT22;2216;53.806;11.598;2022-07-22T01:51:45;19.20;51.70
4406;DHT22;2216;53.806;11.598;2022-07-22T01:54:10;19.20;51.70
4406;DHT22;2216;53.806;11.598;2022-07-22T01:56:36;19.20;51.90
4406;DHT22;2216;53.806;11.598;2022-07-22T01:59:02;19.20;51.70
4406;DHT22;2216;53.806;11.598;2022-07-22T02:01:28;19.20;51.70
4406;DHT22;2216;53.806;11.598;2022-07-22T02:03:53;19.20;51.80
4406;DHT22;2216;53.806;11.598;2022-07-22T02:06:19;19.20;51.80
4406;DHT22;2216;53.806;11.598;2022-07-22T02:08:45;19.20;51.80
4406;DHT22;2216;53.806;11.598;2022-07-22T02:11:10;19.20;51.80
4406;DHT22;2216;53.806;11.598;2022-07-22T02:13:36;19.30;51.90
4406;DHT22;2216;53.806;11.598;2022-07-22T02:16:02;19.30;51.90
4406;DHT22;2216;53.806;11.598;2022-07-22T02:18:28;19.30;52.00
4406;DHT22;2216;53.806;11.598;2022-07-22T02:20:54;19.30;52.00
4406;DHT22;2216;53.806;11.598;2022-07-22T02:23:19;19.30;52.10
4406;DHT22;2216;53.806;11.598;2022-07-22T02:25:46;19.30;52.10
4406;DHT22;2216;53.806;11.598;2022-07-22T02:28:12;19.30;52.00
4406;DHT22;2216;53.806;11.598;2022-07-22T02:30:38;19.30;52.10
4406;DHT22;2216;53.806;11.598;2022-07-22T02:33:04;19.30;52.10
4406;DHT22;2216;53.806;11.598;2022-07-22T02:35:30;19.30;52.00
4406;DHT22;2216;53.806;11.598;2022-07-22T02:37:56;19.30;52.00
4406;DHT22;2216;53.806;11.598;2022-07-22T02:40:21;19.40;52.10
4406;DHT22;2216;53.806;11.598;2022-07-22T02:42:47;19.40;52.10
4406;DHT22;2216;53.806;11.598;2022-07-22T02:45:13;19.40;52.50
4406;DHT22;2216;53.806;11.598;2022-07-22T02:47:50;19.40;52.20
4406;DHT22;2216;53.806;11.598;2022-07-22T02:50:17;19.40;52.20
4406;DHT22;2216;53.806;11.598;2022-07-22T02:52:43;19.40;52.20
4406;DHT22;2216;53.806;11.598;2022-07-22T02:55:08;19.30;52.20
4406;DHT22;2216;53.806;11.598;2022-07-22T02:57:34;19.40;52.20
4406;DHT22;2216;53.806;11.598;2022-07-22T03:00:00;19.40;52.20
4406;DHT22;2216;53.806;11.598;2022-07-22T03:02:26;19.40;52.20
4406;DHT22;2216;53.806;11.598;2022-07-22T03:04:52;19.40;52.20
4406;DHT22;2216;53.806;11.598;2022-07-22T03:07:17;19.40;52.20
4406;DHT22;2216;53.806;11.598;2022-07-22T03:09:43;19.40;52.20
4406;DHT22;2216;53.806;11.598;2022-07-22T03:12:10;19.40;52.30
4406;DHT22;2216;53.806;11.598;2022-07-22T03:14:36;19.40;52.30
4406;DHT22;2216;53.806;11.598;2022-07-22T03:17:02;19.50;52.30
4406;DHT22;2216;53.806;11.598;2022-07-22T03:19:28;19.50;52.30
4406;DHT22;2216;53.806;11.598;2022-07-22T03:21:53;19.50;52.30
4406;DHT22;2216;53.806;11.598;2022-07-22T03:24:19;19.50;52.30
4406;DHT22;2216;53.806;11.598;2022-07-22T03:26:44;19.50;52.30
4406;DHT22;2216;53.806;11.598;2022-07-22T03:29:10;19.50;52.30
4406;DHT22;2216;53.806;11.598;2022-07-22T03:31:36;19.50;52.30
4406;DHT22;2216;53.806;11.598;2022-07-22T03:34:01;19.50;52.30
4406;DHT22;2216;53.806;11.598;2022-07-22T03:36:28;19.50;52.30
4406;DHT22;2216;53.806;11.598;2022-07-22T03:38:55;19.60;52.40
4406;DHT22;2216;53.806;11.598;2022-07-22T03:41:21;19.60;52.40
4406;DHT22;2216;53.806;11.598;2022-07-22T03:43:47;19.60;52.30
4406;DHT22;2216;53.806;11.598;2022-07-22T03:46:13;19.60;52.40
4406;DHT22;2216;53.806;11.598;2022-07-22T03:48:39;19.60;52.40
4406;DHT22;2216;53.806;11.598;2022-07-22T03:51:05;19.60;52.40
4406;DHT22;2216;53.806;11.598;2022-07-22T03:53:31;19.60;52.40
4406;DHT22;2216;53.806;11.598;2022-07-22T03:55:58;19.60;52.40
4406;DHT22;2216;53.806;11.598;2022-07-22T03:58:24;19.60;52.40
4406;DHT22;2216;53.806;11.598;2022-07-22T04:00:52;19.60;52.40
4406;DHT22;2216;53.806;11.598;2022-07-22T04:03:18;19.60;52.30
4406;DHT22;2216;53.806;11.598;2022-07-22T04:05:44;19.60;52.40
4406;DHT22;2216;53.806;11.598;2022-07-22T04:08:11;19.60;52.50
4406;DHT22;2216;53.806;11.598;2022-07-22T04:10:37;19.60;53.00
4406;DHT22;2216;53.806;11.598;2022-07-22T04:13:04;19.60;52.60
4406;DHT22;2216;53.806;11.598;2022-07-22T04:15:29;19.60;52.40
4406;DHT22;2216;53.806;11.598;2022-07-22T04:17:55;19.60;52.40
4406;DHT22;2216;53.806;11.598;2022-07-22T04:20:21;19.50;52.20
4406;DHT22;2216;53.806;11.598;2022-07-22T04:22:47;19.40;52.50
4406;DHT22;2216;53.806;11.598;2022-07-22T04:25:12;19.30;52.90
4406;DHT22;2216;53.806;11.598;2022-07-22T04:27:38;19.20;54.00
4406;DHT22;2216;53.806;11.598;2022-07-22T04:30:04;19.00;53.10
4406;DHT22;2216;53.806;11.598;2022-07-22T04:32:30;18.90;53.30
4406;DHT22;2216;53.806;11.598;2022-07-22T04:34:56;18.80;53.10
4406;DHT22;2216;53.806;11.598;2022-07-22T04:37:21;18.70;53.40
4406;DHT22;2216;53.806;11.598;2022-07-22T04:39:47;18.60;53.10
4406;DHT22;2216;53.806;11.598;2022-07-22T04:42:13;18.60;53.20
4406;DHT22;2216;53.806;11.598;2022-07-22T04:44:38;18.50;53.20
4406;DHT22;2216;53.806;11.598;2022-07-22T04:47:04;18.40;53.10
4406;DHT22;2216;53.806;11.598;2022-07-22T04:49:30;18.40;53.20
4406;DHT22;2216;53.806;11.598;2022-07-22T04:51:55;18.30;53.30
4406;DHT22;2216;53.806;11.598;2022-07-22T04:54:21;18.30;53.60
4406;DHT22;2216;53.806;11.598;2022-07-22T04:56:47;18.20;53.50
4406;DHT22;2216;53.806;11.598;2022-07-22T04:59:12;18.20;53.70
4406;DHT22;2216;53.806;11.598;2022-07-22T05:01:38;18.10;53.30
4406;DHT22;2216;53.806;11.598;2022-07-22T05:04:04;18.10;53.30
4406;DHT22;2216;53.806;11.598;2022-07-22T05:06:29;18.10;53.40
4406;DHT22;2216;53.806;11.598;2022-07-22T05:08:55;18.00;53.30
4406;DHT22;2216;53.806;11.598;2022-07-22T05:11:21;18.00;53.80
4406;DHT22;2216;53.806;11.598;2022-07-22T05:13:46;17.90;53.60
4406;DHT22;2216;53.806;11.598;2022-07-22T05:16:12;17.80;54.00
4406;DHT22;2216;53.806;11.598;2022-07-22T05:18:38;17.80;53.90
4406;DHT22;2216;53.806;11.598;2022-07-22T05:21:04;17.80;53.90
4406;DHT22;2216;53.806;11.598;2022-07-22T05:23:30;17.70;53.90
4406;DHT22;2216;53.806;11.598;2022-07-22T05:25:56;17.60;53.80
4406;DHT22;2216;53.806;11.598;2022-07-22T05:28:21;17.60;54.10
4406;DHT22;2216;53.806;11.598;2022-07-22T05:30:47;17.50;53.80
4406;DHT22;2216;53.806;11.598;2022-07-22T05:33:13;17.50;53.90
4406;DHT22;2216;53.806;11.598;2022-07-22T05:35:38;17.40;53.90
4406;DHT22;2216;53.806;11.598;2022-07-22T05:38:04;17.40;54.10
4406;DHT22;2216;53.806;11.598;2022-07-22T05:40:31;17.30;53.90
4406;DHT22;2216;53.806;11.598;2022-07-22T05:42:58;17.30;54.30
4406;DHT22;2216;53.806;11.598;2022-07-22T05:45:23;17.30;54.20
4406;DHT22;2216;53.806;11.598;2022-07-22T05:47:49;17.20;54.10
4406;DHT22;2216;53.806;11.598;2022-07-22T05:50:15;17.30;54.60
4406;DHT22;2216;53.806;11.598;2022-07-22T05:52:40;17.20;54.60
4406;DHT22;2216;53.806;11.598;2022-07-22T05:55:06;17.20;54.10
4406;DHT22;2216;53.806;11.598;2022-07-22T05:57:33;17.20;54.70
4406;DHT22;2216;53.806;11.598;2022-07-22T05:59:58;17.20;54.40
4406;DHT22;2216;53.806;11.598;2022-07-22T06:02:24;17.10;54.20
4406;DHT22;2216;53.806;11.598;2022-07-22T06:04:50;17.20;54.30
4406;DHT22;2216;53.806;11.598;2022-07-22T06:07:16;17.20;54.20
4406;DHT22;2216;53.806;11.598;2022-07-22T06:09:42;17.10;54.20
4406;DHT22;2216;53.806;11.598;2022-07-22T06:12:08;17.10;54.30
4406;DHT22;2216;53.806;11.598;2022-07-22T06:14:34;17.10;54.30
4406;DHT22;2216;53.806;11.598;2022-07-22T06:17:01;17.10;54.40
4406;DHT22;2216;53.806;11.598;2022-07-22T06:19:27;17.10;54.20
4406;DHT22;2216;53.806;11.598;2022-07-22T06:21:54;17.10;54.30
4406;DHT22;2216;53.806;11.598;2022-07-22T06:24:21;17.10;54.60
4406;DHT22;2216;53.806;11.598;2022-07-22T06:26:46;17.10;55.00
4406;DHT22;2216;53.806;11.598;2022-07-22T06:29:12;17.10;54.80
4406;DHT22;2216;53.806;11.598;2022-07-22T06:31:38;17.10;54.40
4406;DHT22;2216;53.806;11.598;2022-07-22T06:34:03;17.10;54.30
4406;DHT22;2216;53.806;11.598;2022-07-22T06:36:31;17.10;54.80
4406;DHT22;2216;53.806;11.598;2022-07-22T06:38:57;17.20;54.80
4406;DHT22;2216;53.806;11.598;2022-07-22T06:41:23;17.20;54.90
4406;DHT22;2216;53.806;11.598;2022-07-22T06:43:49;17.20;54.80
4406;DHT22;2216;53.806;11.598;2022-07-22T06:46:15;17.30;54.60
4406;DHT22;2216;53.806;11.598;2022-07-22T06:48:41;17.30;54.60
4406;DHT22;2216;53.806;11.598;2022-07-22T06:51:06;17.30;54.70
4406;DHT22;2216;53.806;11.598;2022-07-22T06:53:32;17.40;54.70
4406;DHT22;2216;53.806;11.598;2022-07-22T06:55:58;17.40;54.70
4406;DHT22;2216;53.806;11.598;2022-07-22T06:58:24;17.40;54.70
4406;DHT22;2216;53.806;11.598;2022-07-22T07:00:50;17.50;54.70
4406;DHT22;2216;53.806;11.598;2022-07-22T07:03:15;17.50;54.70
4406;DHT22;2216;53.806;11.598;2022-07-22T07:05:41;17.60;54.90
4406;DHT22;2216;53.806;11.598;2022-07-22T07:08:07;17.60;54.80
4406;DHT22;2216;53.806;11.598;2022-07-22T07:10:32;17.70;54.80
4406;DHT22;2216;53.806;11.598;2022-07-22T07:12:59;17.80;55.10
4406;DHT22;2216;53.806;11.598;2022-07-22T07:15:25;17.90;55.10
4406;DHT22;2216;53.806;11.598;2022-07-22T07:17:52;18.00;55.20
4406;DHT22;2216;53.806;11.598;2022-07-22T07:20:19;18.10;55.00
4406;DHT22;2216;53.806;11.598;2022-07-22T07:22:45;18.10;55.00
4406;DHT22;2216;53.806;11.598;2022-07-22T07:25:11;18.10;54.80
4406;DHT22;2216;53.806;11.598;2022-07-22T07:27:37;18.20;54.60
4406;DHT22;2216;53.806;11.598;2022-07-22T07:30:06;18.30;54.90
4406;DHT22;2216;53.806;11.598;2022-07-22T07:32:34;18.30;54.70
4406;DHT22;2216;53.806;11.598;2022-07-22T07:35:01;18.40;54.70
4406;DHT22;2216;53.806;11.598;2022-07-22T07:37:31;18.40;54.60
4406;DHT22;2216;53.806;11.598;2022-07-22T07:39:57;18.50;54.80
4406;DHT22;2216;53.806;11.598;2022-07-22T07:42:23;18.50;54.80
4406;DHT22;2216;53.806;11.598;2022-07-22T07:44:50;18.60;54.90
4406;DHT22;2216;53.806;11.598;2022-07-22T07:47:15;18.70;55.00
4406;DHT22;2216;53.806;11.598;2022-07-22T07:49:45;18.90;55.20
4406;DHT22;2216;53.806;11.598;2022-07-22T07:52:11;19.00;55.80
4406;DHT22;2216;53.806;11.598;2022-07-22T07:54:38;19.20;55.30
4406;DHT22;2216;53.806;11.598;2022-07-22T07:57:05;19.30;55.30
4406;DHT22;2216;53.806;11.598;2022-07-22T07:59:32;19.50;55.20
4406;DHT22;2216;53.806;11.598;2022-07-22T08:01:58;19.60;55.40
4406;DHT22;2216;53.806;11.598;2022-07-22T08:04:25;19.70;55.00
4406;DHT22;2216;53.806;11.598;2022-07-22T08:06:50;19.80;54.80
4406;DHT22;2216;53.806;11.598;2022-07-22T08:09:16;19.90;55.00
4406;DHT22;2216;53.806;11.598;2022-07-22T08:11:42;19.90;54.60
4406;DHT22;2216;53.806;11.598;2022-07-22T08:14:08;20.00;54.80
4406;DHT22;2216;53.806;11.598;2022-07-22T08:16:33;20.10;54.50
4406;DHT22;2216;53.806;11.598;2022-07-22T08:18:59;20.10;54.80
4406;DHT22;2216;53.806;11.598;2022-07-22T08:21:25;20.10;54.60
4406;DHT22;2216;53.806;11.598;2022-07-22T08:23:51;20.20;54.40
4406;DHT22;2216;53.806;11.598;2022-07-22T08:26:17;20.20;54.50
4406;DHT22;2216;53.806;11.598;2022-07-22T08:28:43;20.30;54.50
4406;DHT22;2216;53.806;11.598;2022-07-22T08:31:09;20.30;54.50
4406;DHT22;2216;53.806;11.598;2022-07-22T08:33:35;20.40;54.60
4406;DHT22;2216;53.806;11.598;2022-07-22T08:36:01;20.40;54.30
4406;DHT22;2216;53.806;11.598;2022-07-22T08:38:26;20.40;54.20
4406;DHT22;2216;53.806;11.598;2022-07-22T08:40:54;20.50;54.30
4406;DHT22;2216;53.806;11.598;2022-07-22T08:43:21;20.40;54.00
4406;DHT22;2216;53.806;11.598;2022-07-22T08:45:48;20.40;54.00
4406;DHT22;2216;53.806;11.598;2022-07-22T08:48:14;20.40;53.90
4406;DHT22;2216;53.806;11.598;2022-07-22T08:50:40;20.30;53.80
4406;DHT22;2216;53.806;11.598;2022-07-22T08:53:11;20.30;53.80
4406;DHT22;2216;53.806;11.598;2022-07-22T08:55:45;20.30;53.70
4406;DHT22;2216;53.806;11.598;2022-07-22T08:58:12;20.20;53.80
4406;DHT22;2216;53.806;11.598;2022-07-22T09:00:38;20.20;53.80
4406;DHT22;2216;53.806;11.598;2022-07-22T09:03:19;20.20;54.20
4406;DHT22;2216;53.806;11.598;2022-07-22T09:05:48;20.10;53.90
4406;DHT22;2216;53.806;11.598;2022-07-22T09:08:15;20.10;53.80
4406;DHT22;2216;53.806;11.598;2022-07-22T09:10:41;20.10;53.90
4406;DHT22;2216;53.806;11.598;2022-07-22T09:13:08;20.10;54.10
4406;DHT22;2216;53.806;11.598;2022-07-22T09:15:37;20.10;54.00
4406;DHT22;2216;53.806;11.598;2022-07-22T09:18:09;20.10;54.00
4406;DHT22;2216;53.806;11.598;2022-07-22T09:20:35;20.10;54.00
4406;DHT22;2216;53.806;11.598;2022-07-22T09:23:09;20.20;54.10
4406;DHT22;2216;53.806;11.598;2022-07-22T09:25:49;20.20;54.10
4406;DHT22;2216;53.806;11.598;2022-07-22T09:28:18;20.20;54.10
4406;DHT22;2216;53.806;11.598;2022-07-22T09:30:54;20.20;54.00
4406;DHT22;2216;53.806;11.598;2022-07-22T09:33:21;20.20;54.10
4406;DHT22;2216;53.806;11.598;2022-07-22T09:35:48;20.20;54.10
4406;DHT22;2216;53.806;11.598;2022-07-22T09:38:15;20.20;54.00
4406;DHT22;2216;53.806;11.598;2022-07-22T09:40:44;20.30;54.10
4406;DHT22;2216;53.806;11.598;2022-07-22T09:43:16;20.30;54.30
4406;DHT22;2216;53.806;11.598;2022-07-22T09:45:47;20.30;54.70
4406;DHT22;2216;53.806;11.598;2022-07-22T09:48:16;20.30;54.40
4406;DHT22;2216;53.806;11.598;2022-07-22T09:50:44;20.40;54.50
4406;DHT22;2216;53.806;11.598;2022-07-22T09:53:10;20.40;54.30
4406;DHT22;2216;53.806;11.598;2022-07-22T09:55:38;20.50;54.30
4406;DHT22;2216;53.806;11.598;2022-07-22T09:58:04;20.50;54.50
4406;DHT22;2216;53.806;11.598;2022-07-22T10:00:33;20.50;54.10
4406;DHT22;2216;53.806;11.598;2022-07-22T10:03:01;20.50;53.90
4406;DHT22;2216;53.806;11.598;2022-07-22T10:05:30;20.50;53.80
4406;DHT22;2216;53.806;11.598;2022-07-22T10:08:00;20.50;53.80
4406;DHT22;2216;53.806;11.598;2022-07-22T10:10:29;20.40;54.10
4406;DHT22;2216;53.806;11.598;2022-07-22T10:12:56;20.40;53.80
4406;DHT22;2216;53.806;11.598;2022-07-22T10:15:25;20.40;53.90
4406;DHT22;2216;53.806;11.598;2022-07-22T10:17:55;20.30;53.80
4406;DHT22;2216;53.806;11.598;2022-07-22T10:20:24;20.40;53.80
4406;DHT22;2216;53.806;11.598;2022-07-22T10:26:00;20.30;53.80
4406;DHT22;2216;53.806;11.598;2022-07-22T10:28:35;20.40;53.80
4406;DHT22;2216;53.806;11.598;2022-07-22T10:31:23;20.30;53.90
4406;DHT22;2216;53.806;11.598;2022-07-22T10:33:52;20.40;53.90
4406;DHT22;2216;53.806;11.598;2022-07-22T10:36:36;20.50;54.10
4406;DHT22;2216;53.806;11.598;2022-07-22T10:39:12;20.50;54.30
4406;DHT22;2216;53.806;11.598;2022-07-22T10:41:41;20.60;55.00
4406;DHT22;2216;53.806;11.598;2022-07-22T10:44:10;20.70;54.70
4406;DHT22;2216;53.806;11.598;2022-07-22T10:46:52;20.90;54.90
4406;DHT22;2216;53.806;11.598;2022-07-22T10:49:21;21.20;55.00
4406;DHT22;2216;53.806;11.598;2022-07-22T10:54:32;21.50;54.50
4406;DHT22;2216;53.806;11.598;2022-07-22T10:56:59;21.60;54.10
4406;DHT22;2216;53.806;11.598;2022-07-22T10:59:26;21.60;53.90
4406;DHT22;2216;53.806;11.598;2022-07-22T11:01:52;21.70;53.70
4406;DHT22;2216;53.806;11.598;2022-07-22T11:04:24;21.60;53.60
4406;DHT22;2216;53.806;11.598;2022-07-22T11:06:53;21.60;53.50
4406;DHT22;2216;53.806;11.598;2022-07-22T11:09:31;21.50;53.40
4406;DHT22;2216;53.806;11.598;2022-07-22T11:11:58;21.50;53.40
4406;DHT22;2216;53.806;11.598;2022-07-22T11:14:28;21.40;53.40
4406;DHT22;2216;53.806;11.598;2022-07-22T11:17:07;21.40;53.60
4406;DHT22;2216;53.806;11.598;2022-07-22T11:19:34;21.30;53.40
4406;DHT22;2216;53.806;11.598;2022-07-22T11:22:11;21.20;53.30
4406;DHT22;2216;53.806;11.598;2022-07-22T11:24:38;21.20;53.40
4406;DHT22;2216;53.806;11.598;2022-07-22T11:27:13;21.20;53.50
4406;DHT22;2216;53.806;11.598;2022-07-22T11:29:40;21.10;53.40
4406;DHT22;2216;53.806;11.598;2022-07-22T11:32:11;21.10;53.60
4406;DHT22;2216;53.806;11.598;2022-07-22T11:34:43;21.10;54.10
4406;DHT22;2216;53.806;11.598;2022-07-22T11:37:13;21.10;53.90
4406;DHT22;2216;53.806;11.598;2022-07-22T11:39:40;21.20;53.90
4406;DHT22;2216;53.806;11.598;2022-07-22T11:42:06;21.30;54.20
4406;DHT22;2216;53.806;11.598;2022-07-22T11:44:34;21.50;54.40
4406;DHT22;2216;53.806;11.598;2022-07-22T11:47:02;21.60;54.20
4406;DHT22;2216;53.806;11.598;2022-07-22T11:49:31;21.70;54.00
4406;DHT22;2216;53.806;11.598;2022-07-22T11:52:02;21.80;53.90
4406;DHT22;2216;53.806;11.598;2022-07-22T11:54:29;21.80;53.70
4406;DHT22;2216;53.806;11.598;2022-07-22T11:56:55;21.90;53.80
4406;DHT22;2216;53.806;11.598;2022-07-22T11:59:21;22.00;53.80
4406;DHT22;2216;53.806;11.598;2022-07-22T12:01:48;22.00;53.60
4406;DHT22;2216;53.806;11.598;2022-07-22T12:04:16;22.10;53.70
4406;DHT22;2216;53.806;11.598;2022-07-22T12:06:44;22.10;53.60
4406;DHT22;2216;53.806;11.598;2022-07-22T12:09:12;22.20;53.60
4406;DHT22;2216;53.806;11.598;2022-07-22T12:11:47;22.30;53.60
4406;DHT22;2216;53.806;11.598;2022-07-22T12:14:18;22.40;53.60
4406;DHT22;2216;53.806;11.598;2022-07-22T12:17:04;22.50;53.50
4406;DHT22;2216;53.806;11.598;2022-07-22T12:19:34;22.50;53.40
4406;DHT22;2216;53.806;11.598;2022-07-22T12:22:03;22.60;53.40
4406;DHT22;2216;53.806;11.598;2022-07-22T12:27:07;22.70;53.50
4406;DHT22;2216;53.806;11.598;2022-07-22T12:32:03;23.00;53.70
4406;DHT22;2216;53.806;11.598;2022-07-22T12:34:46;23.20;53.60
4406;DHT22;2216;53.806;11.598;2022-07-22T12:37:27;23.30;53.20
4406;DHT22;2216;53.806;11.598;2022-07-22T12:42:31;23.40;52.90
4406;DHT22;2216;53.806;11.598;2022-07-22T12:52:42;23.80;52.90
4406;DHT22;2216;53.806;11.598;2022-07-22T12:55:08;23.90;53.00
4406;DHT22;2216;53.806;11.598;2022-07-22T12:57:34;24.00;52.80
4406;DHT22;2216;53.806;11.598;2022-07-22T12:59:59;24.10;52.40
4406;DHT22;2216;53.806;11.598;2022-07-22T13:02:25;24.10;52.40
4406;DHT22;2216;53.806;11.598;2022-07-22T13:04:50;24.10;52.30
4406;DHT22;2216;53.806;11.598;2022-07-22T13:07:16;24.10;52.20
4406;DHT22;2216;53.806;11.598;2022-07-22T13:09:42;24.00;52.00
4406;DHT22;2216;53.806;11.598;2022-07-22T13:12:07;24.20;52.40
4406;DHT22;2216;53.806;11.598;2022-07-22T13:14:33;24.30;52.60
4406;DHT22;2216;53.806;11.598;2022-07-22T13:17:00;24.40;52.50
4406;DHT22;2216;53.806;11.598;2022-07-22T13:19:25;24.50;52.40
4406;DHT22;2216;53.806;11.598;2022-07-22T13:21:51;24.60;52.30
4406;DHT22;2216;53.806;11.598;2022-07-22T13:24:17;24.60;51.90
4406;DHT22;2216;53.806;11.598;2022-07-22T13:26:42;24.70;51.90
4406;DHT22;2216;53.806;11.598;2022-07-22T13:29:08;24.60;51.70
4406;DHT22;2216;53.806;11.598;2022-07-22T13:31:35;24.60;51.80
4406;DHT22;2216;53.806;11.598;2022-07-22T13:34:00;24.50;51.70
4406;DHT22;2216;53.806;11.598;2022-07-22T13:36:26;24.50;51.80
4406;DHT22;2216;53.806;11.598;2022-07-22T13:38:53;24.60;52.00
4406;DHT22;2216;53.806;11.598;2022-07-22T13:41:19;24.70;51.80
4406;DHT22;2216;53.806;11.598;2022-07-22T13:43:45;24.70;51.90
4406;DHT22;2216;53.806;11.598;2022-07-22T13:46:12;24.80;51.90
4406;DHT22;2216;53.806;11.598;2022-07-22T13:48:37;24.90;51.80
4406;DHT22;2216;53.806;11.598;2022-07-22T13:51:03;25.00;51.60
4406;DHT22;2216;53.806;11.598;2022-07-22T13:53:30;25.00;51.60
4406;DHT22;2216;53.806;11.598;2022-07-22T13:55:56;25.00;51.40
4406;DHT22;2216;53.806;11.598;2022-07-22T13:58:21;25.00;51.30
4406;DHT22;2216;53.806;11.598;2022-07-22T14:00:47;25.00;51.40
4406;DHT22;2216;53.806;11.598;2022-07-22T14:03:13;25.10;51.30
4406;DHT22;2216;53.806;11.598;2022-07-22T14:05:38;25.10;51.40
4406;DHT22;2216;53.806;11.598;2022-07-22T14:08:04;25.10;51.10
4406;DHT22;2216;53.806;11.598;2022-07-22T14:10:30;25.10;51.20
4406;DHT22;2216;53.806;11.598;2022-07-22T14:12:55;25.20;51.00
4406;DHT22;2216;53.806;11.598;2022-07-22T14:15:21;25.20;50.80
4406;DHT22;2216;53.806;11.598;2022-07-22T14:17:47;25.30;51.10
4406;DHT22;2216;53.806;11.598;2022-07-22T14:20:12;25.30;51.10
4406;DHT22;2216;53.806;11.598;2022-07-22T14:22:38;25.30;51.10
4406;DHT22;2216;53.806;11.598;2022-07-22T14:25:04;25.40;51.20
4406;DHT22;2216;53.806;11.598;2022-07-22T14:27:30;25.40;51.00
4406;DHT22;2216;53.806;11.598;2022-07-22T14:29:56;25.40;51.00
4406;DHT22;2216;53.806;11.598;2022-07-22T14:32:21;25.40;51.00
4406;DHT22;2216;53.806;11.598;2022-07-22T14:34:47;25.40;51.10
4406;DHT22;2216;53.806;11.598;2022-07-22T14:37:13;25.40;50.80
4406;DHT22;2216;53.806;11.598;2022-07-22T14:39:39;25.50;51.00
4406;DHT22;2216;53.806;11.598;2022-07-22T14:42:05;25.50;51.10
4406;DHT22;2216;53.806;11.598;2022-07-22T14:44:30;25.60;51.00
4406;DHT22;2216;53.806;11.598;2022-07-22T14:46:56;25.60;50.90
4406;DHT22;2216;53.806;11.598;2022-07-22T14:49:22;25.60;50.90
4406;DHT22;2216;53.806;11.598;2022-07-22T14:51:47;25.70;51.00
4406;DHT22;2216;53.806;11.598;2022-07-22T14:54:13;25.70;50.80
4406;DHT22;2216;53.806;11.598;2022-07-22T14:56:39;25.70;50.70
4406;DHT22;2216;53.806;11.598;2022-07-22T14:59:06;25.80;50.70
4406;DHT22;2216;53.806;11.598;2022-07-22T15:01:32;25.80;50.70
4406;DHT22;2216;53.806;11.598;2022-07-22T15:03:58;25.90;50.80
4406;DHT22;2216;53.806;11.598;2022-07-22T15:06:23;25.90;50.50
4406;DHT22;2216;53.806;11.598;2022-07-22T15:08:49;25.90;50.60
4406;DHT22;2216;53.806;11.598;2022-07-22T15:11:15;25.90;50.60
4406;DHT22;2216;53.806;11.598;2022-07-22T15:13:41;25.90;50.40
4406;DHT22;2216;53.806;11.598;2022-07-22T15:16:07;25.80;50.30
4406;DHT22;2216;53.806;11.598;2022-07-22T15:18:34;25.80;50.20
4406;DHT22;2216;53.806;11.598;2022-07-22T15:21:00;25.70;50.20
4406;DHT22;2216;53.806;11.598;2022-07-22T15:23:26;25.70;49.90
4406;DHT22;2216;53.806;11.598;2022-07-22T15:25:55;25.60;50.60
4406;DHT22;2216;53.806;11.598;2022-07-22T15:28:24;25.50;50.00
4406;DHT22;2216;53.806;11.598;2022-07-22T15:30:51;25.50;50.10
4406;DHT22;2216;53.806;11.598;2022-07-22T15:33:17;25.50;50.10
4406;DHT22;2216;53.806;11.598;2022-07-22T15:35:44;25.40;50.20
4406;DHT22;2216;53.806;11.598;2022-07-22T15:38:11;25.40;50.20
4406;DHT22;2216;53.806;11.598;2022-07-22T15:40:37;25.40;50.00
4406;DHT22;2216;53.806;11.598;2022-07-22T15:43:04;25.30;50.10
4406;DHT22;2216;53.806;11.598;2022-07-22T15:45:31;25.30;50.10
4406;DHT22;2216;53.806;11.598;2022-07-22T15:47:58;25.30;50.00
4406;DHT22;2216;53.806;11.598;2022-07-22T15:50:23;25.20;49.80
4406;DHT22;2216;53.806;11.598;2022-07-22T15:52:49;25.20;49.90
4406;DHT22;2216;53.806;11.598;2022-07-22T15:55:16;25.10;49.80
4406;DHT22;2216;53.806;11.598;2022-07-22T15:57:42;25.10;49.80
4406;DHT22;2216;53.806;11.598;2022-07-22T16:00:26;25.00;49.70
4406;DHT22;2216;53.806;11.598;2022-07-22T16:02:53;24.90;49.60
4406;DHT22;2216;53.806;11.598;2022-07-22T16:05:19;24.90;49.70